Time;durP1;ratioP1;P1;durP2;ratioP2;P2;SDS_P1;SDS_P2;PMS_P1;PMS_P2;Temp;Humidity;BMP_temperature;BMP_pressure;BME280_temperature;BME280_humidity;BME280_pressure;Samples;Min_cycle;Max_cycle;Signal;HPM_P1;HPM_P2
2022/08/08 00:02:11;;;;;;;;;;;;;;;;;;5010336;28;20012;-60
2022/08/08 00:04:39;;;;;;;;;;;;;;;;;;4991593;28;19956;-60
2022/08/08 00:07:07;;;;;;;;;;;;;;;;;;5006853;28;19921;-59
2022/08/08 00:09:34;;;;;;;;;;;;;;;;;;5007236;28;19922;-59
2022/08/08 00:12:00;;;;;;;;;;;;;;;;;;5009022;28;20865;-59
2022/08/08 00:14:25;;;;;;;;;;;;;;;;;;4991968;28;20733;-60
2022/08/08 00:16:53;;;;;;;;;;;;;;;;;;5011974;28;19925;-59
2022/08/08 00:19:21;;;;;;;;;;;;;;;;;;5012505;28;20015;-60
2022/08/08 00:21:46;;;;;;;;;;;;;;;;;;5010854;28;19917;-59
2022/08/08 00:24:14;;;;;;;;;;;;;;;;;;5011488;28;19921;-60
2022/08/08 00:26:47;;;;;;;;;;;;;;;;;;5009522;28;19940;-59
2022/08/08 00:29:14;;;;;;;;;;;;;;;;;;5016187;28;20684;-60
2022/08/08 00:31:40;;;;;;;;;;;;;;;;;;4991312;28;19917;-59
2022/08/08 00:36:54;;;;;;;;;;;;;;;;;;4983247;28;19933;-59
2022/08/08 00:39:20;;;;;;;;;;;;;;;;;;5010957;28;19928;-61
2022/08/08 00:41:48;;;;;;;;;;;;;;;;;;5011371;28;19921;-59
2022/08/08 00:44:13;;;;;;;;;;;;;;;;;;5007802;28;19921;-60
2022/08/08 00:46:39;;;;;;;;;;;;;;;;;;5008440;28;20006;-59
2022/08/08 00:49:05;;;;;;;;;;;;;;;;;;5011008;28;19921;-59
2022/08/08 00:51:33;;;;;;;;;;;;;;;;;;5010293;28;19917;-59
2022/08/08 00:54:00;;;;;;;;;;;;;;;;;;5010124;28;20052;-59
2022/08/08 00:56:28;;;;;;;;;;;;;;;;;;5007856;28;19978;-59
2022/08/08 00:58:56;;;;;;;;;;;;;;;;;;5009609;28;20883;-60
2022/08/08 01:01:24;;;;;;;;;;;;;;;;;;5013881;28;19927;-60
2022/08/08 01:03:49;;;;;;;;;;;;;;;;;;5008414;28;19922;-59
2022/08/08 01:06:14;;;;;;;;;;;;;;;;;;5009882;28;20390;-59
2022/08/08 01:08:40;;;;;;;;;;;;;;;;;;5010213;28;19936;-60
2022/08/08 01:11:05;;;;;;;;;;;;;;;;;;5010095;28;20079;-59
2022/08/08 01:13:31;;;;;;;;;;;;;;;;;;5009383;28;19928;-60
2022/08/08 01:15:58;;;;;;;;;;;;;;;;;;5012149;28;20339;-60
2022/08/08 01:18:23;;;;;;;;;;;;;;;;;;5011461;28;19955;-60
2022/08/08 01:20:51;;;;;;;;;;;;;;;;;;5011744;28;20516;-60
2022/08/08 01:23:19;;;;;;;;;;;;;;;;;;5007670;28;19970;-60
2022/08/08 01:25:44;;;;;;;;;;;;;;;;;;5011117;28;19928;-60
2022/08/08 01:28:10;;;;;;;;;;;;;;;;;;5023013;28;19921;-60
2022/08/08 01:30:37;;;;;;;;;;;;;;;;;;5011083;28;19917;-61
2022/08/08 01:33:05;;;;;;;;;;;;;;;;;;5006714;28;19971;-59
2022/08/08 01:35:30;;;;;;;;;;;;;;;;;;5010965;28;19967;-59
2022/08/08 01:37:58;;;;;;;;;;;;;;;;;;5009960;28;20366;-59
2022/08/08 01:40:25;;;;;;;;;;;;;;;;;;4989548;28;20131;-60
2022/08/08 01:42:50;;;;;;;;;;;;;;;;;;5010751;28;20607;-59
2022/08/08 01:45:16;;;;;;;;;;;;;;;;;;5009664;28;19917;-59
2022/08/08 01:47:41;;;;;;;;;;;;;;;;;;5008306;28;20842;-60
2022/08/08 01:50:09;;;;;;;;;;;;;;;;;;5011909;28;19921;-59
2022/08/08 01:52:34;;;;;;;;;;;;;;;;;;4989628;28;19928;-60
2022/08/08 01:55:00;;;;;;;;;;;;;;;;;;5009626;28;19925;-60
2022/08/08 01:57:25;;;;;;;;;;;;;;;;;;4995404;28;19964;-60
2022/08/08 01:59:53;;;;;;;;;;;;;;;;;;4994389;28;19925;-60
2022/08/08 02:02:21;;;;;;;;;;;;;;;;;;5010804;28;19967;-60
2022/08/08 02:04:48;;;;;;;;;;;;;;;;;;5011215;28;20373;-60
2022/08/08 02:07:16;;;;;;;;;;;;;;;;;;5009275;28;19932;-59
2022/08/08 02:09:44;;;;;;;;;;;;;;;;;;5007585;28;19951;-60
2022/08/08 02:12:09;;;;;;;;;;;;;;;;;;5010054;28;20059;-59
2022/08/08 02:14:34;;;;;;;;;;;;;;;;;;5010028;28;19917;-59
2022/08/08 02:17:03;;;;;;;;;;;;;;;;;;5008491;28;19960;-59
2022/08/08 02:19:33;;;;;;;;;;;;;;;;;;5009672;28;19971;-59
2022/08/08 02:24:43;;;;;;;;;;;;;;;;;;5007692;28;19925;-58
2022/08/08 02:27:11;;;;;;;;;;;;;;;;;;5009803;28;19972;-59
2022/08/08 02:29:38;;;;;;;;;;;;;;;;;;5007477;28;19947;-59
2022/08/08 02:32:05;;;;;;;;;;;;;;;;;;5008904;28;19995;-60
2022/08/08 02:34:32;;;;;;;;;;;;;;;;;;5007810;28;19932;-60
2022/08/08 02:36:58;;;;;;;;;;;;;;;;;;5009780;28;19929;-59
2022/08/08 02:39:26;;;;;;;;;;;;;;;;;;5008066;28;19921;-60
2022/08/08 02:41:51;;;;;;;;;;;;;;;;;;5004897;28;19932;-60
2022/08/08 02:44:16;;;;;;;;;;;;;;;;;;4994532;28;19921;-60
2022/08/08 02:46:44;;;;;;;;;;;;;;;;;;5008590;28;19921;-60
2022/08/08 02:49:12;;;;;;;;;;;;;;;;;;5009338;28;19924;-59
2022/08/08 02:51:39;;;;;;;;;;;;;;;;;;5008819;28;19932;-59
2022/08/08 02:54:05;;;;;;;;;;;;;;;;;;5006556;28;20047;-59
2022/08/08 02:56:30;;;;;;;;;;;;;;;;;;5007759;28;19921;-60
2022/08/08 02:58:55;;;;;;;;;;;;;;;;;;5008763;28;19928;-60
2022/08/08 03:01:21;;;;;;;;;;;;;;;;;;5008649;28;19917;-59
2022/08/08 03:03:46;;;;;;;;;;;;;;;;;;5008060;28;19927;-60
2022/08/08 03:06:14;;;;;;;;;;;;;;;;;;4994065;28;20456;-59
2022/08/08 03:08:40;;;;;;;;;;;;;;;;;;5010839;28;19924;-60
2022/08/08 03:11:05;;;;;;;;;;;;;;;;;;5010971;28;20012;-60
2022/08/08 03:13:32;;;;;;;;;;;;;;;;;;5011933;28;20040;-59
2022/08/08 03:16:00;;;;;;;;;;;;;;;;;;5007781;28;20406;-59
2022/08/08 03:18:25;;;;;;;;;;;;;;;;;;5009016;28;20486;-59
2022/08/08 03:20:52;;;;;;;;;;;;;;;;;;5009500;28;19983;-60
2022/08/08 03:23:19;;;;;;;;;;;;;;;;;;5008070;28;19917;-59
2022/08/08 03:25:45;;;;;;;;;;;;;;;;;;5009408;28;19932;-59
2022/08/08 03:28:13;;;;;;;;;;;;;;;;;;4997561;28;20422;-60
2022/08/08 03:30:39;;;;;;;;;;;;;;;;;;4989541;28;19929;-60
2022/08/08 03:33:19;;;;;;;;;;;;;;;;;;5012031;28;19916;-60
2022/08/08 03:35:53;;;;;;;;;;;;;;;;;;5009348;28;20022;-59
2022/08/08 03:38:18;;;;;;;;;;;;;;;;;;5010700;28;19999;-59
2022/08/08 03:40:44;;;;;;;;;;;;;;;;;;4996979;28;19929;-59
2022/08/08 03:43:12;;;;;;;;;;;;;;;;;;5016619;28;20009;-59
2022/08/08 03:45:37;;;;;;;;;;;;;;;;;;5013527;28;20380;-60
2022/08/08 03:48:03;;;;;;;;;;;;;;;;;;5014177;28;20646;-60
2022/08/08 03:50:28;;;;;;;;;;;;;;;;;;5013420;28;19923;-59
2022/08/08 03:52:54;;;;;;;;;;;;;;;;;;4994679;28;21946;-59
2022/08/08 03:55:21;;;;;;;;;;;;;;;;;;5016911;28;20011;-60
2022/08/08 03:57:49;;;;;;;;;;;;;;;;;;5015341;28;19925;-59
2022/08/08 04:00:17;;;;;;;;;;;;;;;;;;5010056;28;20000;-60
2022/08/08 04:02:42;;;;;;;;;;;;;;;;;;5014505;28;19968;-60
2022/08/08 04:05:08;;;;;;;;;;;;;;;;;;4993778;28;19917;-60
2022/08/08 04:07:36;;;;;;;;;;;;;;;;;;5013148;28;20584;-60
2022/08/08 04:10:03;;;;;;;;;;;;;;;;;;5010414;28;19983;-59
2022/08/08 04:12:29;;;;;;;;;;;;;;;;;;5228785;22;20344;-60
2022/08/08 04:14:54;;;;;;;;;;;;;;;;;;4918733;28;19926;-60
2022/08/08 04:17:20;;;;;;;;;;;;;;;;;;4917840;28;19926;-59
2022/08/08 04:19:45;;;;;;;;;;;;;;;;;;4919442;28;20573;-59
2022/08/08 04:22:10;;;;;;;;;;;;;;;;;;4904324;28;20009;-60
2022/08/08 04:24:38;;;;;;;;;;;;;;;;;;4916408;28;21823;-60
2022/08/08 04:27:03;;;;;;;;;;;;;;;;;;4918307;28;19918;-61
2022/08/08 04:29:34;;;;;;;;;;;;;;;;;;4912141;28;19919;-59
2022/08/08 04:32:02;;;;;;;;;;;;;;;;;;4919862;28;19923;-60
2022/08/08 04:34:27;;;;;;;;;;;;;;;;;;4918049;28;19919;-60
2022/08/08 04:36:52;;;;;;;;;;;;;;;;;;4921755;28;19938;-60
2022/08/08 04:39:17;;;;;;;;;;;;;;;;;;4917407;28;19964;-60
2022/08/08 04:41:43;;;;;;;;;;;;;;;;;;4916951;28;19930;-60
2022/08/08 04:44:10;;;;;;;;;;;;;;;;;;4918853;28;20343;-59
2022/08/08 04:46:36;;;;;;;;;;;;;;;;;;4918545;28;20556;-60
2022/08/08 04:49:01;;;;;;;;;;;;;;;;;;4919401;28;19972;-59
2022/08/08 04:51:27;;;;;;;;;;;;;;;;;;4919380;28;19927;-60
2022/08/08 04:53:54;;;;;;;;;;;;;;;;;;4919529;28;20017;-60
2022/08/08 04:56:22;;;;;;;;;;;;;;;;;;4919597;28;20855;-60
2022/08/08 04:58:52;;;;;;;;;;;;;;;;;;4918344;28;20401;-61
2022/08/08 05:01:17;;;;;;;;;;;;;;;;;;4920491;28;20650;-60
2022/08/08 05:03:42;;;;;;;;;;;;;;;;;;4920071;28;19918;-61
2022/08/08 05:06:10;;;;;;;;;;;;;;;;;;4921585;28;19923;-61
2022/08/08 05:08:35;;;;;;;;;;;;;;;;;;4920225;28;20757;-61
2022/08/08 05:11:06;;;;;;;;;;;;;;;;;;4917668;28;20645;-61
2022/08/08 05:13:32;;;;;;;;;;;;;;;;;;4920012;28;20057;-61
2022/08/08 05:15:57;;;;;;;;;;;;;;;;;;4917128;28;19931;-60
2022/08/08 05:18:22;;;;;;;;;;;;;;;;;;4901136;28;20701;-60
2022/08/08 05:20:48;;;;;;;;;;;;;;;;;;4915274;28;19923;-61
2022/08/08 05:23:16;;;;;;;;;;;;;;;;;;4919205;28;19919;-60
2022/08/08 05:25:41;;;;;;;;;;;;;;;;;;4915031;28;19927;-60
2022/08/08 05:28:07;;;;;;;;;;;;;;;;;;4916450;28;19969;-60
2022/08/08 05:30:35;;;;;;;;;;;;;;;;;;4917873;28;19937;-60
2022/08/08 05:33:00;;;;;;;;;;;;;;;;;;4918572;28;19923;-60
2022/08/08 05:35:27;;;;;;;;;;;;;;;;;;4921042;28;19919;-60
2022/08/08 05:37:55;;;;;;;;;;;;;;;;;;4916695;28;20439;-60
2022/08/08 05:40:20;;;;;;;;;;;;;;;;;;4922274;28;19922;-61
2022/08/08 05:42:46;;;;;;;;;;;;;;;;;;4920492;28;19923;-60
2022/08/08 05:45:15;;;;;;;;;;;;;;;;;;4920180;28;20020;-62
2022/08/08 05:47:42;;;;;;;;;;;;;;;;;;4925897;28;19933;-61
2022/08/08 05:50:08;;;;;;;;;;;;;;;;;;4901553;28;19967;-60
2022/08/08 05:52:36;;;;;;;;;;;;;;;;;;4918866;28;20006;-61
2022/08/08 05:55:04;;;;;;;;;;;;;;;;;;4918293;28;21036;-60
2022/08/08 05:57:29;;;;;;;;;;;;;;;;;;4918674;28;20015;-60
2022/08/08 05:59:54;;;;;;;;;;;;;;;;;;4914692;28;19922;-60
2022/08/08 06:05:06;;;;;;;;;;;;;;;;;;4915535;28;19950;-60
2022/08/08 06:07:34;;;;;;;;;;;;;;;;;;4918088;28;19919;-61
2022/08/08 06:10:01;;;;;;;;;;;;;;;;;;4913086;28;19923;-61
2022/08/08 06:12:29;;;;;;;;;;;;;;;;;;4917075;28;19957;-61
2022/08/08 06:14:54;;;;;;;;;;;;;;;;;;4922846;28;19919;-61
2022/08/08 06:17:19;;;;;;;;;;;;;;;;;;4916154;28;20041;-61
2022/08/08 06:19:48;;;;;;;;;;;;;;;;;;4913919;28;19933;-61
2022/08/08 06:22:13;;;;;;;;;;;;;;;;;;4895707;28;20468;-62
2022/08/08 06:24:38;;;;;;;;;;;;;;;;;;4914163;28;20021;-62
2022/08/08 06:27:04;;;;;;;;;;;;;;;;;;4916394;28;19954;-62
2022/08/08 06:29:29;;;;;;;;;;;;;;;;;;4915032;28;19930;-61
2022/08/08 06:31:57;;;;;;;;;;;;;;;;;;4899910;28;19923;-61
2022/08/08 06:34:27;;;;;;;;;;;;;;;;;;4917744;28;19922;-61
2022/08/08 06:36:54;;;;;;;;;;;;;;;;;;4918862;28;19934;-62
2022/08/08 06:39:22;;;;;;;;;;;;;;;;;;4916312;28;19918;-61
2022/08/08 06:41:50;;;;;;;;;;;;;;;;;;4919744;28;19977;-61
2022/08/08 06:44:18;;;;;;;;;;;;;;;;;;4911686;28;20581;-62
2022/08/08 06:46:43;;;;;;;;;;;;;;;;;;4915807;28;19925;-61
2022/08/08 06:49:11;;;;;;;;;;;;;;;;;;4918018;28;19925;-60
2022/08/08 06:51:37;;;;;;;;;;;;;;;;;;4913110;28;19922;-62
2022/08/08 06:54:07;;;;;;;;;;;;;;;;;;4912055;28;19923;-63
2022/08/08 06:56:35;;;;;;;;;;;;;;;;;;4920455;28;19926;-63
2022/08/08 06:59:01;;;;;;;;;;;;;;;;;;4913217;28;19922;-62
2022/08/08 07:01:29;;;;;;;;;;;;;;;;;;4916694;28;19930;-61
2022/08/08 07:03:54;;;;;;;;;;;;;;;;;;4913442;28;19929;-62
2022/08/08 07:06:20;;;;;;;;;;;;;;;;;;4916568;28;20839;-62
2022/08/08 07:08:46;;;;;;;;;;;;;;;;;;4912148;28;19923;-62
2022/08/08 07:11:11;;;;;;;;;;;;;;;;;;4896628;28;20512;-62
2022/08/08 07:13:39;;;;;;;;;;;;;;;;;;4913727;28;19937;-61
2022/08/08 07:16:04;;;;;;;;;;;;;;;;;;4912890;28;19926;-63
2022/08/08 07:18:30;;;;;;;;;;;;;;;;;;4914007;28;20460;-63
2022/08/08 07:20:58;;;;;;;;;;;;;;;;;;4912095;28;19984;-64
2022/08/08 07:23:24;;;;;;;;;;;;;;;;;;4919258;28;19933;-63
2022/08/08 07:25:49;;;;;;;;;;;;;;;;;;4906731;28;20811;-64
2022/08/08 07:28:24;;;;;;;;;;;;;;;;;;4918604;28;19923;-62
2022/08/08 07:30:49;;;;;;;;;;;;;;;;;;4915999;28;19929;-63
2022/08/08 07:33:15;;;;;;;;;;;;;;;;;;4915530;28;20677;-63
2022/08/08 07:35:41;;;;;;;;;;;;;;;;;;4907112;28;19934;-63
2022/08/08 07:38:14;;;;;;;;;;;;;;;;;;4921227;28;20586;-63
2022/08/08 07:40:40;;;;;;;;;;;;;;;;;;4919342;28;20317;-64
2022/08/08 07:43:05;;;;;;;;;;;;;;;;;;4918502;28;19923;-63
2022/08/08 07:45:30;;;;;;;;;;;;;;;;;;4914102;28;19980;-64
2022/08/08 07:47:58;;;;;;;;;;;;;;;;;;4917246;28;19989;-63
2022/08/08 07:50:24;;;;;;;;;;;;;;;;;;4917071;28;20468;-63
2022/08/08 07:52:52;;;;;;;;;;;;;;;;;;4916593;28;19923;-63
2022/08/08 07:55:18;;;;;;;;;;;;;;;;;;4919572;28;20060;-63
2022/08/08 07:57:46;;;;;;;;;;;;;;;;;;4901663;28;19946;-62
2022/08/08 08:00:14;;;;;;;;;;;;;;;;;;4914563;28;20022;-63
2022/08/08 08:02:40;;;;;;;;;;;;;;;;;;4916410;28;19922;-62
2022/08/08 08:05:08;;;;;;;;;;;;;;;;;;4915614;28;19919;-60
2022/08/08 08:07:34;;;;;;;;;;;;;;;;;;4917166;28;19966;-63
2022/08/08 08:10:00;;;;;;;;;;;;;;;;;;4916162;28;19983;-63
2022/08/08 08:12:25;;;;;;;;;;;;;;;;;;4917888;28;19930;-63
2022/08/08 08:14:50;;;;;;;;;;;;;;;;;;4917755;28;19922;-64
2022/08/08 08:17:16;;;;;;;;;;;;;;;;;;4918632;28;19922;-63
2022/08/08 08:19:41;;;;;;;;;;;;;;;;;;4921436;28;19923;-63
2022/08/08 08:22:07;;;;;;;;;;;;;;;;;;4917613;28;19973;-62
2022/08/08 08:24:35;;;;;;;;;;;;;;;;;;4916805;28;19919;-64
2022/08/08 08:27:03;;;;;;;;;;;;;;;;;;4919967;28;19937;-64
2022/08/08 08:29:28;;;;;;;;;;;;;;;;;;4919530;28;20476;-65
2022/08/08 08:31:55;;;;;;;;;;;;;;;;;;4927352;28;19922;-65
2022/08/08 08:34:23;;;;;;;;;;;;;;;;;;4908447;28;20432;-65
2022/08/08 08:36:48;;;;;;;;;;;;;;;;;;4921262;28;19962;-65
2022/08/08 08:39:13;;;;;;;;;;;;;;;;;;4918304;28;19923;-64
2022/08/08 08:41:38;;;;;;;;;;;;;;;;;;4919401;28;20021;-65
2022/08/08 08:44:04;;;;;;;;;;;;;;;;;;4920274;28;19926;-63
2022/08/08 08:46:30;;;;;;;;;;;;;;;;;;4918752;28;19938;-64
2022/08/08 08:48:58;;;;;;;;;;;;;;;;;;4918143;28;20060;-64
2022/08/08 08:51:23;;;;;;;;;;;;;;;;;;4901344;28;20285;-65
2022/08/08 08:53:51;;;;;;;;;;;;;;;;;;4919126;28;19930;-65
2022/08/08 08:56:21;;;;;;;;;;;;;;;;;;4934373;28;19919;-64
2022/08/08 08:58:47;;;;;;;;;;;;;;;;;;4923497;28;20626;-64
2022/08/08 09:01:17;;;;;;;;;;;;;;;;;;4919505;28;19923;-64
2022/08/08 09:03:42;;;;;;;;;;;;;;;;;;4916029;28;19922;-65
2022/08/08 09:06:08;;;;;;;;;;;;;;;;;;4918371;28;21077;-65
2022/08/08 09:08:36;;;;;;;;;;;;;;;;;;4918026;28;19933;-62
2022/08/08 09:11:01;;;;;;;;;;;;;;;;;;4918570;28;20237;-63
2022/08/08 09:13:29;;;;;;;;;;;;;;;;;;4919840;28;19939;-63
2022/08/08 09:15:55;;;;;;;;;;;;;;;;;;4919990;28;19923;-63
2022/08/08 09:18:22;;;;;;;;;;;;;;;;;;4917209;28;19923;-64
2022/08/08 09:20:47;;;;;;;;;;;;;;;;;;4919599;28;19926;-63
2022/08/08 09:23:13;;;;;;;;;;;;;;;;;;4921038;28;19919;-65
2022/08/08 09:25:39;;;;;;;;;;;;;;;;;;4918750;28;19922;-64
2022/08/08 09:28:09;;;;;;;;;;;;;;;;;;4919240;28;19957;-63
2022/08/08 09:30:35;;;;;;;;;;;;;;;;;;4918798;28;19973;-64
2022/08/08 09:33:02;;;;;;;;;;;;;;;;;;4917053;28;19926;-64
2022/08/08 09:35:30;;;;;;;;;;;;;;;;;;4925988;28;20784;-64
2022/08/08 09:37:55;;;;;;;;;;;;;;;;;;4918232;28;19928;-64
2022/08/08 09:40:20;;;;;;;;;;;;;;;;;;4909765;28;19937;-63
2022/08/08 09:42:46;;;;;;;;;;;;;;;;;;4919687;28;19973;-64
2022/08/08 09:45:12;;;;;;;;;;;;;;;;;;4918276;28;20669;-63
2022/08/08 09:47:40;;;;;;;;;;;;;;;;;;4919760;28;20013;-64
2022/08/08 09:50:07;;;;;;;;;;;;;;;;;;4926322;28;19922;-64
2022/08/08 09:52:33;;;;;;;;;;;;;;;;;;4920910;28;22129;-63
2022/08/08 09:55:03;;;;;;;;;;;;;;;;;;4917813;28;19964;-64
2022/08/08 09:57:31;;;;;;;;;;;;;;;;;;4901084;28;19919;-64
2022/08/08 09:59:56;;;;;;;;;;;;;;;;;;4923966;28;19918;-65
2022/08/08 10:02:28;;;;;;;;;;;;;;;;;;4916794;28;19929;-65
2022/08/08 10:04:55;;;;;;;;;;;;;;;;;;4901643;28;19993;-65
2022/08/08 10:07:21;;;;;;;;;;;;;;;;;;4910140;28;19933;-65
2022/08/08 10:09:48;;;;;;;;;;;;;;;;;;4910468;28;19928;-64
2022/08/08 10:12:14;;;;;;;;;;;;;;;;;;4919537;28;19926;-65
2022/08/08 10:14:39;;;;;;;;;;;;;;;;;;4917016;28;19941;-63
2022/08/08 10:17:05;;;;;;;;;;;;;;;;;;4925658;28;19923;-64
2022/08/08 10:19:30;;;;;;;;;;;;;;;;;;4915811;28;19934;-63
2022/08/08 10:21:55;;;;;;;;;;;;;;;;;;4916045;28;19945;-63
2022/08/08 10:24:21;;;;;;;;;;;;;;;;;;4925205;28;19918;-64
2022/08/08 10:26:46;;;;;;;;;;;;;;;;;;4925094;28;19936;-64
2022/08/08 10:29:12;;;;;;;;;;;;;;;;;;4916781;28;19923;-65
2022/08/08 10:34:23;;;;;;;;;;;;;;;;;;4918430;28;19925;-64
2022/08/08 10:36:51;;;;;;;;;;;;;;;;;;4900827;28;19923;-65
2022/08/08 10:39:16;;;;;;;;;;;;;;;;;;4917588;28;20881;-63
2022/08/08 10:41:42;;;;;;;;;;;;;;;;;;4919346;28;19961;-64
2022/08/08 10:44:11;;;;;;;;;;;;;;;;;;4918217;28;19946;-64
2022/08/08 10:46:37;;;;;;;;;;;;;;;;;;4906591;28;19995;-63
2022/08/08 10:49:02;;;;;;;;;;;;;;;;;;4916089;28;19930;-64
2022/08/08 10:51:27;;;;;;;;;;;;;;;;;;4916930;28;19930;-64
2022/08/08 10:53:56;;;;;;;;;;;;;;;;;;4918112;28;20004;-64
2022/08/08 10:56:24;;;;;;;;;;;;;;;;;;4917345;28;19970;-64
2022/08/08 10:58:50;;;;;;;;;;;;;;;;;;4918252;28;20052;-63
2022/08/08 11:01:15;;;;;;;;;;;;;;;;;;4899843;28;19930;-66
2022/08/08 11:03:41;;;;;;;;;;;;;;;;;;4916505;28;20734;-64
2022/08/08 11:06:06;;;;;;;;;;;;;;;;;;4916460;28;19976;-64
2022/08/08 11:08:32;;;;;;;;;;;;;;;;;;4914848;28;20420;-64
2022/08/08 11:11:00;;;;;;;;;;;;;;;;;;4915731;28;19923;-64
2022/08/08 11:13:27;;;;;;;;;;;;;;;;;;4913190;28;19985;-65
2022/08/08 11:15:53;;;;;;;;;;;;;;;;;;4919453;28;19926;-65
2022/08/08 11:18:24;;;;;;;;;;;;;;;;;;4923440;28;20309;-65
2022/08/08 11:20:50;;;;;;;;;;;;;;;;;;4916960;28;19973;-64
2022/08/08 11:23:18;;;;;;;;;;;;;;;;;;4917184;28;19919;-64
2022/08/08 11:25:46;;;;;;;;;;;;;;;;;;4916264;28;19923;-64
2022/08/08 11:28:11;;;;;;;;;;;;;;;;;;4917258;28;19969;-64
2022/08/08 11:30:37;;;;;;;;;;;;;;;;;;4916198;28;19934;-63
2022/08/08 11:33:02;;;;;;;;;;;;;;;;;;4914941;28;19919;-64
2022/08/08 11:35:28;;;;;;;;;;;;;;;;;;4916668;28;19923;-63
2022/08/08 11:37:54;;;;;;;;;;;;;;;;;;4901951;28;19922;-66
2022/08/08 11:40:19;;;;;;;;;;;;;;;;;;4914604;28;20308;-65
2022/08/08 11:42:46;;;;;;;;;;;;;;;;;;4918030;28;19919;-64
2022/08/08 11:45:12;;;;;;;;;;;;;;;;;;4904977;28;19922;-65
2022/08/08 11:47:39;;;;;;;;;;;;;;;;;;4909559;28;19931;-65
2022/08/08 11:50:04;;;;;;;;;;;;;;;;;;4913990;28;19927;-64
2022/08/08 11:52:32;;;;;;;;;;;;;;;;;;4913253;28;20156;-64
2022/08/08 11:55:05;;;;;;;;;;;;;;;;;;4910633;28;20650;-64
2022/08/08 11:57:32;;;;;;;;;;;;;;;;;;4911611;28;19918;-65
2022/08/08 11:59:57;;;;;;;;;;;;;;;;;;4908101;28;19920;-63
2022/08/08 12:02:22;;;;;;;;;;;;;;;;;;4916686;28;20387;-64
2022/08/08 12:04:50;;;;;;;;;;;;;;;;;;4893070;28;19927;-62
2022/08/08 12:07:15;;;;;;;;;;;;;;;;;;4916613;28;20432;-64
2022/08/08 12:09:42;;;;;;;;;;;;;;;;;;4909134;28;19919;-65
2022/08/08 12:12:10;;;;;;;;;;;;;;;;;;4916658;28;20021;-64
2022/08/08 12:14:37;;;;;;;;;;;;;;;;;;4913850;28;19926;-66
2022/08/08 12:17:02;;;;;;;;;;;;;;;;;;4915366;28;19923;-64
2022/08/08 12:19:31;;;;;;;;;;;;;;;;;;4915248;28;19922;-63
2022/08/08 12:21:58;;;;;;;;;;;;;;;;;;4913272;28;19926;-64
2022/08/08 12:24:24;;;;;;;;;;;;;;;;;;4914119;28;19922;-64
2022/08/08 12:26:49;;;;;;;;;;;;;;;;;;4904947;28;19981;-64
2022/08/08 12:29:14;;;;;;;;;;;;;;;;;;4915383;28;19928;-64
2022/08/08 12:31:40;;;;;;;;;;;;;;;;;;4916418;28;19922;-63
2022/08/08 12:34:05;;;;;;;;;;;;;;;;;;4904848;28;21595;-64
2022/08/08 12:36:33;;;;;;;;;;;;;;;;;;4915696;28;19953;-63
2022/08/08 12:38:59;;;;;;;;;;;;;;;;;;4914454;28;19926;-64
2022/08/08 12:41:27;;;;;;;;;;;;;;;;;;4898412;28;20021;-65
2022/08/08 12:43:52;;;;;;;;;;;;;;;;;;4908136;28;20003;-66
2022/08/08 12:46:25;;;;;;;;;;;;;;;;;;4917166;28;19923;-64
2022/08/08 12:48:51;;;;;;;;;;;;;;;;;;4915649;28;19922;-62
2022/08/08 12:51:16;;;;;;;;;;;;;;;;;;4911617;28;19950;-64
2022/08/08 12:53:41;;;;;;;;;;;;;;;;;;4914879;28;20003;-63
2022/08/08 12:56:08;;;;;;;;;;;;;;;;;;4912038;28;19976;-64
2022/08/08 12:58:33;;;;;;;;;;;;;;;;;;4909220;28;19926;-63
2022/08/08 13:00:58;;;;;;;;;;;;;;;;;;4916145;28;19923;-63
2022/08/08 13:03:23;;;;;;;;;;;;;;;;;;4894017;28;20396;-65
2022/08/08 13:05:48;;;;;;;;;;;;;;;;;;4915201;28;19977;-64
2022/08/08 13:08:14;;;;;;;;;;;;;;;;;;4913642;28;19926;-65
2022/08/08 13:10:42;;;;;;;;;;;;;;;;;;4914827;28;19933;-63
2022/08/08 13:13:07;;;;;;;;;;;;;;;;;;4912145;28;21964;-62
2022/08/08 13:15:35;;;;;;;;;;;;;;;;;;4913422;28;19923;-63
2022/08/08 13:18:03;;;;;;;;;;;;;;;;;;4918045;28;19926;-63
2022/08/08 13:20:28;;;;;;;;;;;;;;;;;;4897035;28;19965;-65
2022/08/08 13:22:56;;;;;;;;;;;;;;;;;;4912623;28;20401;-64
2022/08/08 13:25:23;;;;;;;;;;;;;;;;;;4917699;28;19923;-64
2022/08/08 13:27:51;;;;;;;;;;;;;;;;;;4918509;28;19926;-65
2022/08/08 13:30:17;;;;;;;;;;;;;;;;;;4915860;28;19976;-63
2022/08/08 13:32:44;;;;;;;;;;;;;;;;;;4912348;28;19926;-64
2022/08/08 13:35:10;;;;;;;;;;;;;;;;;;4910846;28;20735;-63
2022/08/08 13:37:36;;;;;;;;;;;;;;;;;;4911676;28;19927;-64
2022/08/08 13:40:02;;;;;;;;;;;;;;;;;;4912196;28;19978;-65
2022/08/08 13:42:27;;;;;;;;;;;;;;;;;;4894533;28;19929;-64
2022/08/08 13:44:53;;;;;;;;;;;;;;;;;;4915417;28;20092;-64
2022/08/08 13:47:18;;;;;;;;;;;;;;;;;;4912732;28;19933;-63
2022/08/08 13:49:43;;;;;;;;;;;;;;;;;;4914385;28;20051;-63
2022/08/08 13:52:09;;;;;;;;;;;;;;;;;;4897782;28;19930;-63
2022/08/08 13:54:34;;;;;;;;;;;;;;;;;;4913350;28;19922;-64
2022/08/08 13:57:00;;;;;;;;;;;;;;;;;;4915062;28;20545;-63
2022/08/08 13:59:27;;;;;;;;;;;;;;;;;;4915314;28;19984;-63
2022/08/08 14:01:53;;;;;;;;;;;;;;;;;;4915820;28;22004;-63
2022/08/08 14:04:18;;;;;;;;;;;;;;;;;;4915736;28;19929;-63
2022/08/08 14:06:44;;;;;;;;;;;;;;;;;;4913560;28;20118;-63
2022/08/08 14:09:09;;;;;;;;;;;;;;;;;;4913245;28;20365;-63
2022/08/08 14:11:34;;;;;;;;;;;;;;;;;;4907415;28;20675;-63
2022/08/08 14:14:00;;;;;;;;;;;;;;;;;;4911518;28;19950;-65
2022/08/08 14:16:28;;;;;;;;;;;;;;;;;;4912174;28;19919;-65
2022/08/08 14:18:53;;;;;;;;;;;;;;;;;;4916888;28;19988;-63
2022/08/08 14:21:21;;;;;;;;;;;;;;;;;;4913329;28;20329;-64
2022/08/08 14:23:50;;;;;;;;;;;;;;;;;;4916744;28;19957;-63
2022/08/08 14:26:16;;;;;;;;;;;;;;;;;;4899974;28;19957;-64
2022/08/08 14:28:41;;;;;;;;;;;;;;;;;;4914998;28;20025;-63
2022/08/08 14:31:07;;;;;;;;;;;;;;;;;;4911692;28;20037;-63
2022/08/08 14:33:32;;;;;;;;;;;;;;;;;;4911402;28;19918;-64
2022/08/08 14:35:58;;;;;;;;;;;;;;;;;;4920550;28;19926;-64
2022/08/08 14:38:23;;;;;;;;;;;;;;;;;;4914797;28;19926;-64
2022/08/08 14:40:48;;;;;;;;;;;;;;;;;;4913266;28;19922;-64
2022/08/08 14:43:16;;;;;;;;;;;;;;;;;;4915276;28;19923;-64
2022/08/08 14:45:41;;;;;;;;;;;;;;;;;;4921380;28;19984;-64
2022/08/08 14:48:09;;;;;;;;;;;;;;;;;;4913218;28;20333;-63
2022/08/08 14:50:37;;;;;;;;;;;;;;;;;;4913172;28;19918;-63
2022/08/08 14:53:02;;;;;;;;;;;;;;;;;;4912211;28;20818;-62
2022/08/08 14:55:28;;;;;;;;;;;;;;;;;;4914788;28;19922;-63
2022/08/08 14:57:53;;;;;;;;;;;;;;;;;;4917972;28;19954;-60
2022/08/08 15:00:18;;;;;;;;;;;;;;;;;;4904332;28;19922;-61
2022/08/08 15:02:44;;;;;;;;;;;;;;;;;;4898713;28;20034;-61
2022/08/08 15:05:09;;;;;;;;;;;;;;;;;;4914018;28;20923;-61
2022/08/08 15:07:37;;;;;;;;;;;;;;;;;;4915338;28;19930;-62
2022/08/08 15:10:02;;;;;;;;;;;;;;;;;;4917263;28;19923;-61
2022/08/08 15:12:28;;;;;;;;;;;;;;;;;;4913726;28;20871;-62
2022/08/08 15:14:54;;;;;;;;;;;;;;;;;;4914359;28;19929;-62
2022/08/08 15:17:22;;;;;;;;;;;;;;;;;;4913246;28;20365;-61
2022/08/08 15:19:47;;;;;;;;;;;;;;;;;;4915243;28;20425;-61
2022/08/08 15:22:13;;;;;;;;;;;;;;;;;;4914938;28;20866;-62
2022/08/08 15:24:38;;;;;;;;;;;;;;;;;;4914347;28;20457;-63
2022/08/08 15:27:04;;;;;;;;;;;;;;;;;;4916630;28;20009;-63
2022/08/08 15:29:34;;;;;;;;;;;;;;;;;;4912894;28;20093;-60
2022/08/08 15:31:59;;;;;;;;;;;;;;;;;;4918273;28;20550;-60
2022/08/08 15:34:27;;;;;;;;;;;;;;;;;;4913267;28;19930;-61
2022/08/08 15:36:52;;;;;;;;;;;;;;;;;;4917865;28;19933;-61
2022/08/08 15:39:18;;;;;;;;;;;;;;;;;;4912182;28;19927;-62
2022/08/08 15:41:43;;;;;;;;;;;;;;;;;;4912100;28;20302;-63
2022/08/08 15:44:11;;;;;;;;;;;;;;;;;;4915185;28;19952;-63
2022/08/08 15:46:37;;;;;;;;;;;;;;;;;;4916591;28;19976;-63
2022/08/08 15:49:02;;;;;;;;;;;;;;;;;;4918458;28;19930;-62
2022/08/08 15:51:28;;;;;;;;;;;;;;;;;;4917498;28;19925;-62
2022/08/08 15:53:54;;;;;;;;;;;;;;;;;;4915430;28;19923;-63
2022/08/08 15:56:19;;;;;;;;;;;;;;;;;;4917652;28;19922;-63
2022/08/08 15:58:45;;;;;;;;;;;;;;;;;;4915560;28;19957;-61
2022/08/08 16:01:10;;;;;;;;;;;;;;;;;;4914655;28;20290;-61
2022/08/08 16:03:36;;;;;;;;;;;;;;;;;;4920349;28;19926;-59
2022/08/08 16:06:04;;;;;;;;;;;;;;;;;;4918177;28;19926;-61
2022/08/08 16:08:30;;;;;;;;;;;;;;;;;;4922129;28;19922;-63
2022/08/08 16:10:55;;;;;;;;;;;;;;;;;;4919135;28;19942;-60
2022/08/08 16:13:21;;;;;;;;;;;;;;;;;;4915441;28;19926;-58
2022/08/08 16:15:47;;;;;;;;;;;;;;;;;;4916377;28;19923;-60
2022/08/08 16:18:15;;;;;;;;;;;;;;;;;;4898194;28;19985;-60
2022/08/08 16:20:42;;;;;;;;;;;;;;;;;;4915830;28;19922;-62
2022/08/08 16:23:08;;;;;;;;;;;;;;;;;;4913557;28;20000;-62
2022/08/08 16:25:34;;;;;;;;;;;;;;;;;;4915362;28;20458;-61
2022/08/08 16:27:59;;;;;;;;;;;;;;;;;;4915243;28;19937;-61
2022/08/08 16:30:27;;;;;;;;;;;;;;;;;;4920830;28;19958;-61
2022/08/08 16:32:55;;;;;;;;;;;;;;;;;;4916758;28;19927;-62
2022/08/08 16:35:21;;;;;;;;;;;;;;;;;;4914039;28;19926;-61
2022/08/08 16:37:46;;;;;;;;;;;;;;;;;;4910337;28;19927;-61
2022/08/08 16:40:12;;;;;;;;;;;;;;;;;;4900663;28;19919;-61
2022/08/08 16:42:37;;;;;;;;;;;;;;;;;;4919275;28;19927;-62
2022/08/08 16:45:05;;;;;;;;;;;;;;;;;;4916318;28;20054;-61
2022/08/08 16:47:33;;;;;;;;;;;;;;;;;;4919853;28;20788;-61
2022/08/08 16:50:00;;;;;;;;;;;;;;;;;;4915737;28;19919;-61
2022/08/08 16:52:28;;;;;;;;;;;;;;;;;;4912478;28;19934;-61